Airfield :
LOGIN :

Register | Disclaimer

   EN    FR    IT 

 










Legend :    VFR   Marginal VFR   IFR   Intensive IFR   Very Intensive IFR
Visi :
Ceiling :
>= 8 km
>= 3000ft
5 to 8 km
1000 to 3000 ft
1500m to 5 km
500 to 1000 ft
800 to 1500m
200 to 500 ft
< 800m
< 200 ft
Symbols :   Thunderstorms  Fog  Heavy snow  Heavy precipitations  Wind > 20 kt
SIGMETs :     Misc.  Thunderstorms  Icing  Turbulence  Mountain Waves  Volcanic Ashes






- Airport Elevation : 989 ft
- IATA code : TRN


LIMF - Torino Caselle

CURRENT METAR :
  • 171720Z 03004KT 9999 BKN045 06/05 Q1004

EXPIRED METARs :
  • 171650Z 04004KT 9999 FEW025 BKN045 06/05 Q1004
  • 171620Z 03004KT 9999 SCT025 BKN035 06/05 Q1003
  • 171550Z 06004KT 9999 BKN035 06/05 Q1003
  • 171520Z 08007KT 9999 SCT023 BKN040 07/05 Q1002
  • 171450Z 08007KT 9999 SCT025 BKN040 07/05 Q1002

TAF TAF LIMF
Valid from the 17 at 18:00 until the 18 at 18:00 UTC


171700Z 1718/1818 VRB05KT 7000 BKN040
PROB40
TEMPO 1721/1803 4000 SHRA
TEMPO 1803/1807 0800 BCFG



MET'MAP, your aeronautical weather chart ! - Copyright ORBIFLY December 2007 - Disclaimer

ORBIFLY MET'MAP TEAM :

Programming & Development : Alexandra Zaïnal
Concept & Development : Baudouin d'Aumeries
Co-Development & Prog : Marc-Olivier Méhu
Technical & hardware support : Manuel Goepfert

Contact : metmap@orbifly.com




SOURCES & CREDITS :

   NOAA